createdAt,value
2023-05-09T00:00:58.462Z,6.21429
2023-05-09T00:01:58.735Z,6
2023-05-09T00:02:58.980Z,5.85714
2023-05-09T00:03:59.317Z,5.71429
2023-05-09T00:04:59.490Z,6
2023-05-09T00:05:59.712Z,5.64286
2023-05-09T00:06:59.973Z,6.14286
2023-05-09T00:08:00.207Z,6.35714
2023-05-09T00:09:00.510Z,6.35714
2023-05-09T00:10:00.737Z,6.42857
2023-05-09T00:11:01.007Z,6
2023-05-09T00:12:01.427Z,6.14286
2023-05-09T00:13:01.688Z,6.64286
2023-05-09T00:14:02.017Z,6.42857
2023-05-09T00:15:02.226Z,7.14286
2023-05-09T00:16:02.592Z,6.14286
2023-05-09T00:17:02.907Z,6
2023-05-09T00:18:03.212Z,5.85714
2023-05-09T00:19:03.496Z,5.92857
2023-05-09T00:20:03.863Z,6.35714
2023-05-09T00:21:04.139Z,6.21429
2023-05-09T00:22:04.529Z,6.35714
2023-05-09T00:23:04.899Z,6.64286
2023-05-09T00:24:05.164Z,5.92857
2023-05-09T00:25:05.633Z,5.92857
2023-05-09T00:26:05.881Z,6.35714
2023-05-09T00:27:06.196Z,6.21429
2023-05-09T00:28:06.597Z,6.21429
2023-05-09T00:29:06.818Z,6.92857
2023-05-09T00:30:07.105Z,6.35714
2023-05-09T00:31:07.393Z,5.92857
2023-05-09T00:32:07.778Z,6.14286
2023-05-09T00:33:08.173Z,6.42857
2023-05-09T00:34:08.475Z,6.42857
2023-05-09T00:35:08.861Z,6.14286
2023-05-09T00:36:09.238Z,6.21429
2023-05-09T00:37:09.648Z,6.14286
2023-05-09T00:38:09.954Z,6
2023-05-09T00:39:10.320Z,5.92857
2023-05-09T00:40:10.695Z,6
2023-05-09T00:41:11.024Z,6.5
2023-05-09T00:42:11.455Z,6.14286
2023-05-09T00:43:11.807Z,5.92857
2023-05-09T00:44:12.164Z,5.5
2023-05-09T00:45:12.678Z,6.35714
2023-05-09T00:46:13.060Z,6.14286
2023-05-09T00:47:13.448Z,6.42857
2023-05-09T00:48:13.981Z,6.5
2023-05-09T00:49:14.346Z,6
2023-05-09T00:50:14.802Z,6.64286
2023-05-09T00:51:15.180Z,6.14286
2023-05-09T00:52:15.646Z,6
2023-05-09T00:53:16.117Z,6
2023-05-09T00:54:16.599Z,6.42857
2023-05-09T00:55:17.167Z,6.92857
2023-05-09T00:56:17.535Z,6.42857
2023-05-09T00:57:18.005Z,5.85714
2023-05-09T00:58:18.368Z,6
2023-05-09T00:59:18.783Z,6
2023-05-09T01:00:19.247Z,5.92857
2023-05-09T01:01:19.814Z,5.92857
2023-05-09T01:02:20.218Z,6
2023-05-09T01:03:20.623Z,5.85714
2023-05-09T01:04:20.853Z,6.14286
2023-05-09T01:05:21.184Z,5.42857
2023-05-09T01:06:21.761Z,6.21429
2023-05-09T01:07:22.180Z,6
2023-05-09T01:08:22.706Z,5.92857
2023-05-09T01:09:23.233Z,6.21429
2023-05-09T01:10:23.808Z,5.64286
2023-05-09T01:11:24.299Z,5.85714
2023-05-09T01:12:24.757Z,5.71429
2023-05-09T01:13:25.335Z,5.85714
2023-05-09T01:14:25.667Z,6
2023-05-09T01:15:26.256Z,6.14286
2023-05-09T01:16:26.887Z,6.21429
2023-05-09T01:17:27.156Z,6.14286
2023-05-09T01:18:27.593Z,6
2023-05-09T01:19:28.118Z,5.71429
2023-05-09T01:20:28.646Z,5.71429
2023-05-09T01:21:29.104Z,5.85714
2023-05-09T01:22:29.605Z,6.14286
2023-05-09T01:23:29.953Z,6.5
2023-05-09T01:24:30.566Z,5.5
2023-05-09T01:25:30.987Z,5.92857
2023-05-09T01:26:31.553Z,5.42857
2023-05-09T01:27:32.066Z,5.85714
2023-05-09T01:28:32.552Z,5.92857
2023-05-09T01:29:33.060Z,5.92857
2023-05-09T01:30:33.796Z,5.92857
2023-05-09T01:31:34.481Z,5.71429
2023-05-09T01:32:35.069Z,5.92857
2023-05-09T01:33:35.612Z,5.71429
2023-05-09T01:34:36.186Z,5.85714
2023-05-09T01:35:36.738Z,5.5
2023-05-09T01:36:37.230Z,6.21429
2023-05-09T01:37:38.045Z,5.92857
2023-05-09T01:38:38.490Z,6.14286
2023-05-09T01:39:39.130Z,5.64286
2023-05-09T01:40:39.510Z,5.71429
2023-05-09T01:41:39.997Z,5.71429
2023-05-09T01:42:40.517Z,6.21429
2023-05-09T01:43:41.200Z,5.92857
2023-05-09T01:44:41.522Z,5.42857
2023-05-09T01:45:42.217Z,5.71429
2023-05-09T01:46:43.057Z,5.5
2023-05-09T01:47:43.504Z,5.5
2023-05-09T01:48:43.933Z,6.14286
2023-05-09T01:49:44.582Z,5.35714
2023-05-09T01:50:45.269Z,5.42857
2023-05-09T01:51:46.015Z,5.5
2023-05-09T01:52:46.500Z,5.42857
2023-05-09T01:53:47.034Z,6.14286
2023-05-09T01:54:47.619Z,5.71429
2023-05-09T01:55:48.050Z,5.92857
2023-05-09T01:56:48.493Z,5.35714
2023-05-09T01:57:49.026Z,5.42857
2023-05-09T01:58:49.737Z,5.92857
2023-05-09T01:59:50.221Z,5.71429
2023-05-09T02:00:51.020Z,5.21429
2023-05-09T02:01:51.598Z,5.5
2023-05-09T02:02:52.333Z,5.42857
2023-05-09T02:03:53.198Z,5.92857
2023-05-09T02:04:53.873Z,5.92857
2023-05-09T02:05:54.721Z,5.85714
2023-05-09T02:06:55.453Z,5.64286
2023-05-09T02:07:56.159Z,5.64286
2023-05-09T02:08:56.908Z,5.14286
2023-05-09T02:09:57.885Z,5.42857
2023-05-09T02:10:58.755Z,5.35714
2023-05-09T02:11:59.638Z,5.92857
2023-05-09T02:13:00.324Z,5.71429
2023-05-09T02:14:01.120Z,5
2023-05-09T02:15:02.003Z,5.5
2023-05-09T02:16:02.780Z,6.35714
2023-05-09T02:17:03.624Z,5.14286
2023-05-09T02:18:04.520Z,5.42857
2023-05-09T02:19:04.594Z,5.14286
2023-05-09T02:20:04.599Z,5.85714
2023-05-09T02:21:04.751Z,5.64286
2023-05-09T02:22:05.717Z,5.21429
2023-05-09T02:23:06.553Z,5.21429
2023-05-09T02:24:07.484Z,5.5
2023-05-09T02:25:08.338Z,5
2023-05-09T02:26:08.366Z,5.42857
2023-05-09T02:27:08.590Z,5.35714
2023-05-09T02:28:09.532Z,5.14286
2023-05-09T02:29:09.658Z,5.71429
2023-05-09T02:30:10.561Z,5
2023-05-09T02:31:11.613Z,5.14286
2023-05-09T02:32:12.349Z,5.14286
2023-05-09T02:33:12.355Z,5.35714
2023-05-09T02:34:13.221Z,4.71429
2023-05-09T02:35:14.434Z,5
2023-05-09T02:36:15.080Z,5.21429
2023-05-09T02:37:15.186Z,4.92857
2023-05-09T02:38:15.798Z,4.92857
2023-05-09T02:39:16.457Z,5.14286
2023-05-09T02:40:17.126Z,4.92857
2023-05-09T02:41:17.823Z,5.21429
2023-05-09T02:42:18.356Z,5.42857
2023-05-09T02:43:18.983Z,4.85714
2023-05-09T02:44:19.929Z,4.85714
2023-05-09T02:45:20.546Z,5.35714
2023-05-09T02:46:21.338Z,5.14286
2023-05-09T02:47:22.056Z,4.92857
2023-05-09T02:48:22.659Z,5.21429
2023-05-09T02:49:32.105Z,5.64286
2023-05-09T02:50:24.003Z,5.64286
2023-05-09T02:51:24.915Z,5.14286
2023-05-09T02:52:25.601Z,4.92857
2023-05-09T02:53:26.232Z,4.92857
2023-05-09T02:54:26.934Z,5.14286
2023-05-09T02:55:27.565Z,5.21429
2023-05-09T02:56:28.365Z,4.64286
2023-05-09T02:57:29.040Z,4.85714
2023-05-09T02:58:29.717Z,5.14286
2023-05-09T02:59:30.604Z,4.92857
2023-05-09T03:00:31.337Z,6.21429
2023-05-09T03:01:32.113Z,5.14286
2023-05-09T03:02:33.008Z,4.71429
2023-05-09T03:03:33.880Z,5.14286
2023-05-09T03:04:34.529Z,4.64286
2023-05-09T03:05:35.270Z,5
2023-05-09T03:06:35.357Z,5.35714
2023-05-09T03:07:35.457Z,5.14286
2023-05-09T03:08:35.581Z,5
2023-05-09T03:09:36.322Z,5.5
2023-05-09T03:10:37.146Z,5.42857
2023-05-09T03:11:38.037Z,4.71429
2023-05-09T03:12:38.973Z,5.64286
2023-05-09T03:13:39.803Z,4.85714
2023-05-09T03:14:40.670Z,5
2023-05-09T03:15:40.810Z,4.85714
2023-05-09T03:16:41.644Z,5
2023-05-09T03:17:42.532Z,5
2023-05-09T03:18:43.500Z,4.71429
2023-05-09T03:19:44.136Z,4.42857
2023-05-09T03:20:45.110Z,5.21429
2023-05-09T03:21:46.007Z,5
2023-05-09T03:22:45.980Z,5.64286
2023-05-09T03:23:46.989Z,4.71429
2023-05-09T03:24:58.257Z,4.64286
2023-05-09T03:26:48.587Z,5.21429
2023-05-09T03:27:49.474Z,5
2023-05-09T03:28:49.372Z,5.14286
2023-05-09T03:29:50.109Z,4.85714
2023-05-09T03:30:50.277Z,5.35714
2023-05-09T03:31:51.096Z,5.14286
2023-05-09T03:32:51.927Z,5.5
2023-05-09T03:33:51.929Z,5
2023-05-09T03:34:52.820Z,5.35714
2023-05-09T03:35:52.974Z,4.85714
2023-05-09T03:36:53.092Z,5
2023-05-09T03:37:54.011Z,5
2023-05-09T03:38:55.017Z,4.85714
2023-05-09T03:39:55.864Z,4.5
2023-05-09T03:40:55.933Z,5.42857
2023-05-09T03:41:55.938Z,4.85714
2023-05-09T03:42:56.190Z,5.21429
2023-05-09T03:43:56.499Z,5.14286
2023-05-09T03:44:56.562Z,5.42857
2023-05-09T03:45:57.613Z,5.14286
2023-05-09T03:46:58.618Z,4.85714
2023-05-09T03:47:58.642Z,5.14286
2023-05-09T03:48:58.905Z,4.64286
2023-05-09T03:49:58.920Z,5.14286
2023-05-09T03:50:59.149Z,4.71429
2023-05-09T03:51:59.171Z,5.14286
2023-05-09T03:52:59.694Z,4.85714
2023-05-09T03:54:00.234Z,5.35714
2023-05-09T03:55:00.540Z,4.92857
2023-05-09T03:56:00.674Z,5.14286
2023-05-09T03:57:00.781Z,4.42857
2023-05-09T03:58:01.053Z,5
2023-05-09T03:59:01.372Z,5
2023-05-09T04:00:01.685Z,4.85714
2023-05-09T04:01:02.084Z,5.64286
2023-05-09T04:02:02.568Z,4.71429
2023-05-09T04:03:03.230Z,4.5
2023-05-09T04:04:03.386Z,4.42857
2023-05-09T04:05:03.753Z,5.42857
2023-05-09T04:06:04.009Z,4.85714
2023-05-09T04:07:04.733Z,4.85714
2023-05-09T04:08:05.330Z,4.64286
2023-05-09T04:09:05.777Z,5.35714
2023-05-09T04:10:06.226Z,5
2023-05-09T04:11:07.135Z,6.85714
2023-05-09T04:12:07.457Z,4.64286
2023-05-09T04:13:08.234Z,4.71429
2023-05-09T04:14:08.907Z,5
2023-05-09T04:15:09.678Z,4.64286
2023-05-09T04:16:10.352Z,5.71429
2023-05-09T04:17:11.414Z,4.92857
2023-05-09T04:18:12.046Z,4.35714
2023-05-09T04:19:12.325Z,4.92857
2023-05-09T04:20:13.206Z,4.85714
2023-05-09T04:21:14.021Z,4.85714
2023-05-09T04:22:14.423Z,4.85714
2023-05-09T04:23:15.153Z,5.14286
2023-05-09T04:24:16.069Z,5.35714
2023-05-09T04:25:17.189Z,4.85714
2023-05-09T04:26:17.433Z,5
2023-05-09T04:27:18.204Z,5.71429
2023-05-09T04:28:18.787Z,4.85714
2023-05-09T04:29:19.330Z,4.92857
2023-05-09T04:30:20.161Z,5.71429
2023-05-09T04:31:20.896Z,5
2023-05-09T04:32:20.867Z,4.64286
2023-05-09T04:33:21.634Z,5.14286
2023-05-09T04:34:22.718Z,5.14286
2023-05-09T04:35:23.429Z,4.92857
2023-05-09T04:36:24.320Z,4.64286
2023-05-09T04:37:24.663Z,5.5
2023-05-09T04:38:24.598Z,5
2023-05-09T04:39:24.693Z,5.42857
2023-05-09T04:40:26.750Z,4.85714
2023-05-09T04:41:25.248Z,6.21429
2023-05-09T04:42:25.558Z,5.14286
2023-05-09T04:43:26.287Z,5.71429
2023-05-09T04:44:26.504Z,5.64286
2023-05-09T04:45:26.803Z,4.92857
2023-05-09T04:46:27.640Z,5.85714
2023-05-09T04:47:27.976Z,5.92857
2023-05-09T04:48:28.748Z,4.85714
2023-05-09T04:49:29.395Z,4.85714
2023-05-09T04:50:30.038Z,5.14286
2023-05-09T04:51:31.002Z,5.35714
2023-05-09T04:52:31.760Z,5.5
2023-05-09T04:53:31.880Z,5.21429
2023-05-09T04:54:32.871Z,6.42857
2023-05-09T04:55:33.360Z,5.35714
2023-05-09T04:56:34.435Z,5
2023-05-09T04:57:35.130Z,5.21429
2023-05-09T04:58:35.734Z,4.92857
2023-05-09T04:59:36.448Z,5.14286
2023-05-09T05:00:36.809Z,5.14286
2023-05-09T05:01:37.017Z,5.85714
2023-05-09T05:02:37.254Z,4.92857
2023-05-09T05:03:37.689Z,5.14286
2023-05-09T05:04:38.665Z,5.42857
2023-05-09T05:05:38.856Z,5.21429
2023-05-09T05:06:39.287Z,5.5
2023-05-09T05:07:40.232Z,5.42857
2023-05-09T05:08:40.274Z,5.35714
2023-05-09T05:09:40.400Z,5
2023-05-09T05:10:40.787Z,5.21429
2023-05-09T05:11:53.185Z,4.92857
2023-05-09T05:12:42.576Z,5.21429
2023-05-09T05:13:42.805Z,5.64286
2023-05-09T05:14:43.677Z,5.35714
2023-05-09T05:15:44.598Z,7.42857
2023-05-09T05:16:45.164Z,5.35714
2023-05-09T05:17:46.131Z,5.35714
2023-05-09T05:18:46.662Z,5.71429
2023-05-09T05:19:47.622Z,5.35714
2023-05-09T05:20:48.316Z,5.35714
2023-05-09T05:21:49.213Z,5.71429
2023-05-09T05:22:49.589Z,5.85714
2023-05-09T05:23:50.463Z,5
2023-05-09T05:24:51.123Z,4.92857
2023-05-09T05:25:51.740Z,5.14286
2023-05-09T05:26:52.459Z,5
2023-05-09T05:27:52.452Z,5.5
2023-05-09T05:28:52.543Z,5.14286
2023-05-09T05:29:52.818Z,5.64286
2023-05-09T05:30:53.022Z,5.85714
2023-05-09T05:31:53.273Z,5
2023-05-09T05:32:53.144Z,5.14286
2023-05-09T05:33:53.224Z,5.35714
2023-05-09T05:34:54.100Z,5.92857
2023-05-09T05:35:54.749Z,5.21429
2023-05-09T05:36:55.377Z,5.71429
2023-05-09T05:37:55.556Z,5.35714
2023-05-09T05:38:56.573Z,5.21429
2023-05-09T05:39:57.372Z,5.35714
2023-05-09T05:40:58.070Z,6.14286
2023-05-09T05:41:59.193Z,5.71429
2023-05-09T05:42:59.568Z,5.71429
2023-05-09T05:43:59.630Z,5.14286
2023-05-09T05:44:59.633Z,4.92857
2023-05-09T05:46:00.439Z,8.42857
2023-05-09T05:47:00.586Z,7.71429
2023-05-09T05:48:01.028Z,6.35714
2023-05-09T05:49:01.979Z,6.85714
2023-05-09T05:50:02.795Z,7
2023-05-09T05:51:03.522Z,7.92857
2023-05-09T05:52:03.654Z,7.21429
2023-05-09T05:53:04.004Z,5.64286
2023-05-09T05:54:04.175Z,4.92857
2023-05-09T05:55:05.110Z,4.64286
2023-05-09T05:56:05.462Z,5.35714
2023-05-09T05:57:05.795Z,5.5
2023-05-09T05:58:06.098Z,5.14286
2023-05-09T05:59:06.527Z,5
2023-05-09T06:00:07.341Z,4.5
2023-05-09T06:01:07.462Z,4.42857
2023-05-09T06:02:07.858Z,4.5
2023-05-09T06:03:08.257Z,5.35714
2023-05-09T06:04:08.494Z,5
2023-05-09T06:05:08.857Z,5.14286
2023-05-09T06:06:09.331Z,4.92857
2023-05-09T06:07:09.804Z,4.92857
2023-05-09T06:08:10.254Z,4.71429
2023-05-09T06:09:10.835Z,4.5
2023-05-09T06:10:11.311Z,4.35714
2023-05-09T06:11:11.474Z,4.21429
2023-05-09T06:12:12.217Z,4.5
2023-05-09T06:13:12.914Z,4.35714
2023-05-09T06:14:13.637Z,5
2023-05-09T06:15:14.809Z,4.14286
2023-05-09T06:16:19.900Z,4.71429
2023-05-09T06:17:16.040Z,4.5
2023-05-09T06:18:16.677Z,4.35714
2023-05-09T06:19:17.293Z,4.5
2023-05-09T06:20:17.680Z,4
2023-05-09T06:21:17.900Z,3.92857
2023-05-09T06:22:17.984Z,4.42857
2023-05-09T06:23:18.724Z,4.21429
2023-05-09T06:24:31.810Z,4
2023-05-09T06:25:19.857Z,4.35714
2023-05-09T06:26:20.540Z,4.92857
2023-05-09T06:27:21.193Z,4.21429
2023-05-09T06:28:21.867Z,4.35714
2023-05-09T06:29:22.699Z,4.14286
2023-05-09T06:30:26.421Z,4
2023-05-09T06:31:25.714Z,4.42857
2023-05-09T06:32:24.614Z,4.35714
2023-05-09T06:33:26.024Z,4.21429
2023-05-09T06:34:26.636Z,4.21429
2023-05-09T06:35:27.506Z,5
2023-05-09T06:36:28.481Z,4.21429
2023-05-09T06:37:28.520Z,4.35714
2023-05-09T06:38:28.634Z,4.35714
2023-05-09T06:39:29.536Z,4
2023-05-09T06:40:29.426Z,5.5
2023-05-09T06:41:29.493Z,4.21429
2023-05-09T06:42:30.157Z,4.5
2023-05-09T06:43:31.070Z,4.42857
2023-05-09T06:44:31.975Z,4
2023-05-09T06:45:32.500Z,5
2023-05-09T06:46:33.479Z,3.71429
2023-05-09T06:47:33.990Z,4
2023-05-09T06:48:34.254Z,3.85714
2023-05-09T06:49:35.290Z,4.21429
2023-05-09T06:50:35.994Z,4
2023-05-09T06:51:36.259Z,4
2023-05-09T06:52:36.427Z,3.5
2023-05-09T06:53:37.360Z,4.14286
2023-05-09T06:54:38.044Z,3.85714
2023-05-09T06:55:38.567Z,4.14286
2023-05-09T06:56:38.578Z,3.5
2023-05-09T06:57:38.898Z,4.14286
2023-05-09T06:58:39.849Z,3.5
2023-05-09T06:59:40.296Z,4.21429
2023-05-09T07:00:40.693Z,3.85714
2023-05-09T07:01:41.412Z,4.21429
2023-05-09T07:02:42.534Z,3.92857
2023-05-09T07:03:43.019Z,4.42857
2023-05-09T07:04:43.817Z,4.35714
2023-05-09T07:05:44.560Z,4.14286
2023-05-09T07:06:45.095Z,4
2023-05-09T07:07:45.384Z,4
2023-05-09T07:08:46.030Z,4
2023-05-09T07:09:46.438Z,4.5
2023-05-09T07:10:47.048Z,4.21429
2023-05-09T07:11:47.246Z,4.92857
2023-05-09T07:12:47.538Z,4.35714
2023-05-09T07:13:47.582Z,4.21429
2023-05-09T07:14:48.011Z,4.21429
2023-05-09T07:15:48.303Z,4
2023-05-09T07:16:48.484Z,4
2023-05-09T07:17:48.534Z,4.21429
2023-05-09T07:18:48.936Z,3.92857
2023-05-09T07:19:49.261Z,4.14286
2023-05-09T07:20:49.375Z,3.85714
2023-05-09T07:21:49.402Z,4.92857
2023-05-09T07:22:49.685Z,3.92857
2023-05-09T07:24:50.368Z,4.35714
2023-05-09T07:25:51.546Z,4.85714
2023-05-09T07:26:51.736Z,5.71429
2023-05-09T07:27:52.087Z,4.35714
2023-05-09T07:28:52.621Z,4.71429
2023-05-09T07:29:53.041Z,4.42857
2023-05-09T07:30:53.565Z,4
2023-05-09T07:31:54.130Z,4.14286
2023-05-09T07:32:55.047Z,4.42857
2023-05-09T07:33:55.845Z,3.92857
2023-05-09T07:34:56.533Z,3.85714
2023-05-09T07:35:57.213Z,4.14286
2023-05-09T07:36:58.219Z,4.42857
2023-05-09T07:37:58.834Z,4.14286
2023-05-09T07:38:59.588Z,4.35714
2023-05-09T07:40:00.568Z,4.5
2023-05-09T07:41:01.503Z,4.14286
2023-05-09T07:42:01.829Z,4.5
2023-05-09T07:43:02.707Z,4.85714
2023-05-09T07:44:03.145Z,4.42857
2023-05-09T07:45:04.101Z,4.21429
2023-05-09T07:46:04.213Z,4.42857
2023-05-09T07:47:04.915Z,3.92857
2023-05-09T07:48:04.934Z,4.21429
2023-05-09T07:49:04.999Z,4
2023-05-09T07:50:05.419Z,4.35714
2023-05-09T07:51:05.774Z,4.5
2023-05-09T07:52:06.577Z,3.85714
2023-05-09T07:53:07.737Z,6.71429
2023-05-09T07:54:08.133Z,4.5
2023-05-09T07:55:09.123Z,3.92857
2023-05-09T07:56:10.071Z,4.5
2023-05-09T07:57:10.122Z,4.14286
2023-05-09T07:58:10.177Z,3.92857
2023-05-09T07:59:11.152Z,4
2023-05-09T08:00:12.011Z,4.14286
2023-05-09T08:01:12.280Z,4.85714
2023-05-09T08:02:12.389Z,75.2143
2023-05-09T08:03:13.579Z,26.4286
2023-05-09T08:04:13.775Z,30.1429
2023-05-09T08:05:14.576Z,31.3571
2023-05-09T08:06:15.379Z,22.2143
2023-05-09T08:07:15.364Z,28.1429
2023-05-09T08:08:15.729Z,26.3571
2023-05-09T08:09:15.846Z,27.2143
2023-05-09T08:10:16.469Z,36.7143
2023-05-09T08:11:17.476Z,20.7143
2023-05-09T08:12:17.568Z,22.8571
2023-05-09T08:13:18.258Z,18.5
2023-05-09T08:14:18.638Z,12.5
2023-05-09T08:15:18.721Z,18
2023-05-09T08:16:18.917Z,20.1429
2023-05-09T08:17:19.295Z,12.2143
2023-05-09T08:18:19.364Z,17.3571
2023-05-09T08:19:19.653Z,17.1429
2023-05-09T08:20:19.965Z,20.5
2023-05-09T08:21:22.076Z,13.8571
2023-05-09T08:22:20.634Z,13.6429
2023-05-09T08:23:21.423Z,24.5
2023-05-09T08:24:22.363Z,24.3571
2023-05-09T08:25:23.374Z,14
2023-05-09T08:26:24.301Z,20.2143
2023-05-09T08:27:25.207Z,26.7143
2023-05-09T08:28:26.183Z,24.1429
2023-05-09T08:29:26.745Z,26.7143
2023-05-09T08:30:27.427Z,17
2023-05-09T08:31:27.736Z,14.9286
2023-05-09T08:32:28.374Z,18.7143
2023-05-09T08:33:29.331Z,18.8571
2023-05-09T08:34:30.010Z,11
2023-05-09T08:35:30.422Z,12.4286
2023-05-09T08:36:31.282Z,15.8571
2023-05-09T08:37:32.117Z,9.21429
2023-05-09T08:38:33.192Z,8.64286
2023-05-09T08:39:33.522Z,11.8571
2023-05-09T08:40:34.472Z,11.6429
2023-05-09T08:41:34.763Z,10.4286
2023-05-09T08:42:35.778Z,9.5
2023-05-09T08:43:35.900Z,7.85714
2023-05-09T08:44:36.643Z,9.85714
2023-05-09T08:45:37.180Z,7.85714
2023-05-09T08:46:38.117Z,11.2143
2023-05-09T08:47:38.549Z,9.21429
2023-05-09T08:48:38.650Z,10.2143
2023-05-09T08:49:39.350Z,10.4286
2023-05-09T08:50:39.471Z,9.64286
2023-05-09T08:51:40.295Z,5.71429
2023-05-09T08:52:41.114Z,7.14286
2023-05-09T08:53:41.512Z,10.1429
2023-05-09T08:54:42.723Z,10
2023-05-09T08:55:42.985Z,9.71429
2023-05-09T08:56:43.331Z,13.8571
2023-05-09T08:57:43.906Z,19.4286
2023-05-09T08:58:43.924Z,22.3571
2023-05-09T08:59:44.928Z,13.8571
2023-05-09T09:00:45.474Z,24
2023-05-09T09:01:46.482Z,13.3571
2023-05-09T09:02:46.845Z,17.2143
2023-05-09T09:03:47.503Z,26.5
2023-05-09T09:04:48.832Z,21.4286
2023-05-09T09:05:49.715Z,30.3571
2023-05-09T09:06:49.977Z,21.3571
2023-05-09T09:07:50.924Z,13.3571
2023-05-09T09:08:51.231Z,7.71429
2023-05-09T09:09:51.874Z,4.85714
2023-05-09T09:10:52.826Z,4.5
2023-05-09T09:11:53.004Z,3.92857
2023-05-09T09:12:53.772Z,4
2023-05-09T09:13:54.260Z,3.92857
2023-05-09T09:14:54.712Z,4
2023-05-09T09:15:54.755Z,4.92857
2023-05-09T09:16:55.830Z,4
2023-05-09T09:17:56.636Z,3.92857
2023-05-09T09:18:58.706Z,4
2023-05-09T09:19:57.070Z,5.21429
2023-05-09T09:20:57.900Z,4.35714
2023-05-09T09:21:58.011Z,4
2023-05-09T09:22:58.685Z,4.5
2023-05-09T09:23:59.489Z,4.92857
2023-05-09T09:24:59.779Z,3.64286
2023-05-09T09:26:00.953Z,3.92857
2023-05-09T09:27:00.941Z,3.92857
2023-05-09T09:28:02.652Z,4.21429
2023-05-09T09:29:02.675Z,4.35714
2023-05-09T09:30:02.754Z,3.92857
2023-05-09T09:31:03.125Z,4
2023-05-09T09:32:03.318Z,3.85714
2023-05-09T09:33:03.881Z,4
2023-05-09T09:34:04.034Z,4.14286
2023-05-09T09:35:04.420Z,3.85714
2023-05-09T09:36:04.469Z,3.92857
2023-05-09T09:37:04.936Z,4.42857
2023-05-09T09:38:05.364Z,4.21429
2023-05-09T09:39:05.688Z,4.14286
2023-05-09T09:40:05.823Z,4.21429
2023-05-09T09:41:06.656Z,4
2023-05-09T09:42:07.146Z,4.64286
2023-05-09T09:43:07.900Z,4.21429
2023-05-09T09:44:08.086Z,5.42857
2023-05-09T09:45:08.572Z,3.71429
2023-05-09T09:46:08.677Z,4.5
2023-05-09T09:47:09.654Z,4.21429
2023-05-09T09:48:09.959Z,4.14286
2023-05-09T09:49:10.993Z,3.92857
2023-05-09T09:50:11.193Z,3.35714
2023-05-09T09:51:11.968Z,4.42857
2023-05-09T09:52:11.846Z,4.71429
2023-05-09T09:53:12.146Z,4.42857
2023-05-09T09:54:12.257Z,4.14286
2023-05-09T09:55:12.900Z,4
2023-05-09T09:56:13.569Z,4.14286
2023-05-09T09:57:13.773Z,4.21429
2023-05-09T09:58:13.867Z,3.71429
2023-05-09T09:59:14.060Z,4.35714
2023-05-09T10:00:14.379Z,4.21429
2023-05-09T10:01:14.880Z,4.35714
2023-05-09T10:02:15.206Z,3.71429
2023-05-09T10:03:15.527Z,3.92857
2023-05-09T10:04:16.532Z,3.71429
2023-05-09T10:05:17.195Z,3.85714
2023-05-09T10:06:17.624Z,4.14286
2023-05-09T10:07:17.961Z,3.92857
2023-05-09T10:08:18.741Z,4.5
2023-05-09T10:09:19.736Z,3.92857
2023-05-09T10:10:20.102Z,3.64286
2023-05-09T10:11:21.023Z,3.85714
2023-05-09T10:12:21.568Z,3.92857
2023-05-09T10:13:22.051Z,4.92857
2023-05-09T10:14:22.924Z,6.14286
2023-05-09T10:15:22.983Z,9
2023-05-09T10:16:31.956Z,3.5
2023-05-09T10:17:24.089Z,3.5
2023-05-09T10:18:24.904Z,3.64286
2023-05-09T10:19:25.588Z,3.5
2023-05-09T10:20:26.170Z,3.85714
2023-05-09T10:21:27.002Z,3.5
2023-05-09T10:22:27.669Z,4
2023-05-09T10:23:27.892Z,5.92857
2023-05-09T10:24:29.429Z,3.71429
2023-05-09T10:25:29.743Z,4.21429
2023-05-09T10:26:30.692Z,4.21429
2023-05-09T10:27:31.307Z,3.85714
2023-05-09T10:28:31.255Z,4.14286
2023-05-09T10:29:31.366Z,3.92857
2023-05-09T10:30:33.952Z,4.21429
2023-05-09T10:31:31.942Z,4.21429
2023-05-09T10:32:31.988Z,3.92857
2023-05-09T10:33:32.639Z,3.71429
2023-05-09T10:34:33.062Z,3.5
2023-05-09T10:35:33.528Z,3.92857
2023-05-09T10:36:34.073Z,4
2023-05-09T10:37:34.282Z,3.92857
2023-05-09T10:38:35.422Z,3.85714
2023-05-09T10:39:35.474Z,3.71429
2023-05-09T10:40:36.122Z,3.71429
2023-05-09T10:41:36.622Z,3.35714
2023-05-09T10:42:37.559Z,3.71429
2023-05-09T10:43:38.259Z,4.35714
2023-05-09T10:44:38.922Z,4.5
2023-05-09T10:45:39.548Z,5.5
2023-05-09T10:46:39.672Z,3.92857
2023-05-09T10:47:39.861Z,4.14286
2023-05-09T10:48:40.343Z,4.64286
2023-05-09T10:49:40.638Z,4.21429
2023-05-09T10:50:41.701Z,4.14286
2023-05-09T10:51:42.134Z,4.85714
2023-05-09T10:52:42.822Z,3.71429
2023-05-09T10:53:42.907Z,3.92857
2023-05-09T10:54:43.177Z,3.85714
2023-05-09T10:55:43.923Z,3.71429
2023-05-09T10:56:44.134Z,3.85714
2023-05-09T10:57:44.414Z,3.42857
2023-05-09T10:58:44.945Z,4.35714
2023-05-09T10:59:45.535Z,3.92857
2023-05-09T11:00:46.115Z,4
2023-05-09T11:01:46.628Z,4.35714
2023-05-09T11:02:46.624Z,4.85714
2023-05-09T11:03:47.522Z,4
2023-05-09T11:04:48.012Z,4.14286
2023-05-09T11:05:48.829Z,4.42857
2023-05-09T11:06:49.809Z,4.92857
2023-05-09T11:07:50.091Z,6.85714
2023-05-09T11:08:50.784Z,3.71429
2023-05-09T11:09:51.418Z,3.92857
2023-05-09T11:10:52.072Z,3.64286
2023-05-09T11:11:52.830Z,4
2023-05-09T11:12:54.378Z,3.92857
2023-05-09T11:13:53.284Z,3.85714
2023-05-09T11:14:54.067Z,4.64286
2023-05-09T11:15:54.759Z,3.85714
2023-05-09T11:16:54.982Z,4.14286
2023-05-09T11:17:55.955Z,4.14286
2023-05-09T11:18:56.010Z,4.14286
2023-05-09T11:19:56.110Z,3.71429
2023-05-09T11:20:56.321Z,4.14286
2023-05-09T11:21:56.695Z,4.35714
2023-05-09T11:22:56.759Z,4.5
2023-05-09T11:23:57.952Z,3.85714
2023-05-09T11:24:58.573Z,4.14286
2023-05-09T11:25:59.248Z,3.85714
2023-05-09T11:26:59.613Z,3.92857
2023-05-09T11:28:00.340Z,3.92857
2023-05-09T11:29:00.868Z,4.14286
2023-05-09T11:30:01.545Z,4.71429
2023-05-09T11:31:02.118Z,4.14286
2023-05-09T11:32:02.723Z,4.42857
2023-05-09T11:33:03.174Z,5.35714
2023-05-09T11:34:04.064Z,4.35714
2023-05-09T11:35:04.899Z,4.21429
2023-05-09T11:36:05.110Z,4.35714
2023-05-09T11:37:06.088Z,4.5
2023-05-09T11:38:06.817Z,3.92857
2023-05-09T11:39:06.896Z,4.42857
2023-05-09T11:40:07.099Z,4.92857
2023-05-09T11:41:08.041Z,5.42857
2023-05-09T11:42:08.450Z,4.14286
2023-05-09T11:43:08.520Z,4.14286
2023-05-09T11:44:09.616Z,4.21429
2023-05-09T11:45:09.821Z,6.21429
2023-05-09T11:46:10.310Z,4.71429
2023-05-09T11:47:10.397Z,4
2023-05-09T11:48:11.314Z,4.64286
2023-05-09T11:49:12.270Z,3.92857
2023-05-09T11:50:12.855Z,4.42857
2023-05-09T11:51:13.569Z,5.85714
2023-05-09T11:52:13.583Z,4.35714
2023-05-09T11:53:13.493Z,4
2023-05-09T11:54:14.628Z,4.64286
2023-05-09T11:55:14.963Z,4.85714
2023-05-09T11:56:15.024Z,4.42857
2023-05-09T11:57:15.493Z,5
2023-05-09T11:58:16.933Z,3.71429
2023-05-09T11:59:17.124Z,3.92857
2023-05-09T12:00:17.467Z,3.92857
2023-05-09T12:01:17.862Z,3.92857
2023-05-09T12:02:18.180Z,4.5
2023-05-09T12:03:19.366Z,4.14286
2023-05-09T12:04:20.083Z,4.42857
2023-05-09T12:05:20.652Z,4.64286
2023-05-09T12:06:21.597Z,4
2023-05-09T12:07:22.534Z,4.14286
2023-05-09T12:08:23.240Z,4.21429
2023-05-09T12:09:24.365Z,4.35714
2023-05-09T12:10:25.492Z,5.42857
2023-05-09T12:11:26.423Z,4.21429
2023-05-09T12:12:27.088Z,4.21429
2023-05-09T12:13:27.780Z,3.85714
2023-05-09T12:14:28.170Z,4
2023-05-09T12:15:28.939Z,4.14286
2023-05-09T12:16:29.758Z,4.92857
2023-05-09T12:17:30.532Z,3.71429
2023-05-09T12:18:31.351Z,4.64286
2023-05-09T12:19:32.015Z,5.92857
2023-05-09T12:20:32.830Z,3.42857
2023-05-09T12:21:33.652Z,4.35714
2023-05-09T12:22:34.239Z,5.21429
2023-05-09T12:23:34.497Z,3.71429
2023-05-09T12:24:35.486Z,3.71429
2023-05-09T12:25:36.353Z,5.85714
2023-05-09T12:26:36.899Z,4.85714
2023-05-09T12:27:37.380Z,4.64286
2023-05-09T12:28:37.793Z,4.5
2023-05-09T12:29:38.493Z,4.71429
2023-05-09T12:30:39.096Z,5
2023-05-09T12:31:40.006Z,5
2023-05-09T12:32:40.877Z,3.85714
2023-05-09T12:33:41.730Z,37.8571
2023-05-09T12:34:42.783Z,5.21429
2023-05-09T12:35:43.707Z,3.92857
2023-05-09T12:36:44.147Z,3.85714
2023-05-09T12:37:44.518Z,4.21429
2023-05-09T12:38:45.394Z,3.64286